createdAt,value
2017-01-03T00:00:43.763Z,0
2017-01-03T00:01:45.272Z,0
2017-01-03T00:02:44.302Z,0
2017-01-03T00:03:44.255Z,0
2017-01-03T00:04:44.658Z,0
2017-01-03T00:05:46.053Z,0
2017-01-03T00:06:44.133Z,0
2017-01-03T00:07:44.506Z,0
2017-01-03T00:08:45.098Z,0
2017-01-03T00:09:44.316Z,0
2017-01-03T00:10:44.999Z,0
2017-01-03T00:11:44.719Z,0
2017-01-03T00:12:45.532Z,0
2017-01-03T00:13:44.694Z,0
2017-01-03T00:14:45.361Z,0
2017-01-03T00:15:44.934Z,0
2017-01-03T00:16:45.213Z,0
2017-01-03T00:17:45.006Z,0
2017-01-03T00:18:44.551Z,0
2017-01-03T00:19:45.583Z,0
2017-01-03T00:20:45.560Z,0
2017-01-03T00:21:45.051Z,0
2017-01-03T00:22:44.899Z,0
2017-01-03T00:23:46.085Z,0
2017-01-03T00:24:45.507Z,0
2017-01-03T00:25:45.197Z,0
2017-01-03T00:26:45.201Z,0
2017-01-03T00:27:44.576Z,0
2017-01-03T00:28:44.787Z,0
2017-01-03T00:29:44.256Z,0
2017-01-03T00:30:44.673Z,0
2017-01-03T00:31:44.231Z,0
2017-01-03T00:32:44.981Z,0
2017-01-03T00:33:45.202Z,0
2017-01-03T00:34:45.287Z,0
2017-01-03T00:35:45.054Z,0
2017-01-03T00:36:44.809Z,0
2017-01-03T00:37:44.591Z,0
2017-01-03T00:38:45.006Z,0
2017-01-03T00:39:45.651Z,0
2017-01-03T00:40:45.082Z,0
2017-01-03T00:41:45.100Z,0
2017-01-03T00:42:45.070Z,0
2017-01-03T00:43:45.470Z,0
2017-01-03T00:44:45.811Z,0
2017-01-03T00:45:44.934Z,0
2017-01-03T00:46:44.815Z,0
2017-01-03T00:47:45.501Z,0
2017-01-03T00:48:45.237Z,0
2017-01-03T00:49:45.388Z,0
2017-01-03T00:50:45.703Z,0
2017-01-03T00:51:45.385Z,0
2017-01-03T00:52:44.435Z,0
2017-01-03T00:53:44.694Z,0
2017-01-03T00:54:45.270Z,0
2017-01-03T00:55:45.435Z,0
2017-01-03T00:56:45.201Z,0
2017-01-03T00:57:44.974Z,0
2017-01-03T00:58:45.116Z,0
2017-01-03T00:59:44.534Z,0
2017-01-03T01:00:46.057Z,0
2017-01-03T01:01:44.693Z,0
2017-01-03T01:02:45.308Z,0
2017-01-03T01:03:44.986Z,0
2017-01-03T01:04:44.503Z,0
2017-01-03T01:05:45.465Z,0
2017-01-03T01:06:45.633Z,0
2017-01-03T01:07:44.629Z,0
2017-01-03T01:08:45.064Z,0
2017-01-03T01:09:45.024Z,0
2017-01-03T01:10:45.034Z,0
2017-01-03T01:11:45.808Z,0
2017-01-03T01:12:45.854Z,0
2017-01-03T01:13:45.608Z,0
2017-01-03T01:14:45.772Z,0
2017-01-03T01:15:45.432Z,0
2017-01-03T01:16:44.789Z,0
2017-01-03T01:17:44.588Z,0
2017-01-03T01:18:44.538Z,0
2017-01-03T01:19:44.836Z,0
2017-01-03T01:20:45.529Z,0
2017-01-03T01:21:45.481Z,0
2017-01-03T01:22:46.062Z,0
2017-01-03T01:23:45.252Z,0
2017-01-03T01:24:44.970Z,0
2017-01-03T01:25:44.824Z,0
2017-01-03T01:26:45.260Z,0
2017-01-03T01:27:46.145Z,0
2017-01-03T01:28:45.695Z,0
2017-01-03T01:29:45.238Z,0
2017-01-03T01:30:45.772Z,0
2017-01-03T01:31:45.274Z,0
2017-01-03T01:32:45.598Z,0
2017-01-03T01:33:45.969Z,0
2017-01-03T01:34:46.048Z,0
2017-01-03T01:35:45.802Z,0
2017-01-03T01:36:45.257Z,0
2017-01-03T01:37:44.980Z,0
2017-01-03T01:38:45.835Z,0
2017-01-03T01:39:45.777Z,0
2017-01-03T01:40:45.136Z,0
2017-01-03T01:41:45.612Z,0
2017-01-03T01:42:45.959Z,0
2017-01-03T01:43:45.047Z,0
2017-01-03T01:44:46.406Z,0
2017-01-03T01:45:45.844Z,0
2017-01-03T01:46:46.220Z,0
2017-01-03T01:47:45.371Z,0
2017-01-03T01:48:45.840Z,0
2017-01-03T01:49:46.558Z,0
2017-01-03T01:50:45.139Z,0
2017-01-03T01:51:45.759Z,0
2017-01-03T01:52:45.363Z,0
2017-01-03T01:53:46.420Z,0
2017-01-03T01:54:45.339Z,0
2017-01-03T01:55:45.294Z,0
2017-01-03T01:56:45.610Z,0
2017-01-03T01:57:45.686Z,0
2017-01-03T01:58:45.807Z,0
2017-01-03T01:59:45.988Z,0
2017-01-03T02:00:45.313Z,0
2017-01-03T02:01:46.585Z,0
2017-01-03T02:02:46.287Z,0
2017-01-03T02:03:46.874Z,0
2017-01-03T02:04:46.848Z,0
2017-01-03T02:05:45.656Z,0
2017-01-03T02:06:46.036Z,0
2017-01-03T02:07:46.042Z,0
2017-01-03T02:08:46.288Z,0
2017-01-03T02:09:46.395Z,0
2017-01-03T02:10:45.580Z,0
2017-01-03T02:11:46.197Z,0
2017-01-03T02:12:46.304Z,0
2017-01-03T02:13:46.082Z,0
2017-01-03T02:14:46.140Z,0
2017-01-03T02:15:46.425Z,0
2017-01-03T02:16:45.958Z,0
2017-01-03T02:17:45.535Z,0
2017-01-03T02:18:45.874Z,0
2017-01-03T02:19:45.680Z,0
2017-01-03T02:20:46.270Z,0
2017-01-03T02:21:45.889Z,0
2017-01-03T02:22:45.939Z,0
2017-01-03T02:23:46.625Z,0
2017-01-03T02:24:47.318Z,0
2017-01-03T02:25:46.698Z,0
2017-01-03T02:26:47.441Z,0
2017-01-03T02:27:46.933Z,0
2017-01-03T02:28:46.821Z,0
2017-01-03T02:29:46.584Z,0
2017-01-03T02:30:46.303Z,0
2017-01-03T02:31:46.253Z,0
2017-01-03T02:32:47.103Z,0
2017-01-03T02:33:46.836Z,0
2017-01-03T02:34:46.947Z,0
2017-01-03T02:35:48.149Z,0
2017-01-03T02:36:46.494Z,0
2017-01-03T02:37:46.672Z,0
2017-01-03T02:38:47.489Z,0
2017-01-03T02:39:45.990Z,0
2017-01-03T02:40:46.055Z,0
2017-01-03T02:41:47.285Z,0
2017-01-03T02:42:46.589Z,0
2017-01-03T02:43:46.516Z,0
2017-01-03T02:44:46.846Z,0
2017-01-03T02:45:45.824Z,0
2017-01-03T02:46:46.676Z,0
2017-01-03T02:47:46.019Z,0
2017-01-03T02:48:46.545Z,0
2017-01-03T02:49:46.938Z,0
2017-01-03T02:50:46.462Z,0
2017-01-03T02:51:46.624Z,0
2017-01-03T02:52:46.678Z,0
2017-01-03T02:53:47.290Z,0
2017-01-03T02:54:47.402Z,0
2017-01-03T02:55:46.399Z,0
2017-01-03T02:56:47.744Z,0
2017-01-03T02:57:46.789Z,0
2017-01-03T02:58:47.907Z,0
2017-01-03T02:59:46.380Z,0
2017-01-03T03:00:46.661Z,0
2017-01-03T03:01:46.845Z,0
2017-01-03T03:02:46.177Z,0
2017-01-03T03:03:47.214Z,0
2017-01-03T03:04:46.168Z,0
2017-01-03T03:05:46.145Z,0
2017-01-03T03:06:46.566Z,0
2017-01-03T03:07:46.941Z,0
2017-01-03T03:08:47.160Z,0
2017-01-03T03:09:46.781Z,0
2017-01-03T03:10:47.733Z,0
2017-01-03T03:11:46.266Z,0
2017-01-03T03:12:47.455Z,0
2017-01-03T03:13:46.285Z,0
2017-01-03T03:14:46.519Z,0
2017-01-03T03:15:46.684Z,0
2017-01-03T03:16:46.301Z,0
2017-01-03T03:17:46.234Z,0
2017-01-03T03:18:46.468Z,0
2017-01-03T03:19:47.329Z,0
2017-01-03T03:20:46.238Z,0
2017-01-03T03:21:46.968Z,0
2017-01-03T03:22:46.833Z,0
2017-01-03T03:23:48.112Z,0
2017-01-03T03:24:46.614Z,0
2017-01-03T03:25:46.401Z,0
2017-01-03T03:26:46.320Z,0
2017-01-03T03:27:46.949Z,0
2017-01-03T03:28:46.742Z,0
2017-01-03T03:29:47.581Z,0
2017-01-03T03:30:46.571Z,0
2017-01-03T03:31:47.941Z,0
2017-01-03T03:32:47.336Z,0
2017-01-03T03:33:46.499Z,0
2017-01-03T03:34:47.815Z,0
2017-01-03T03:35:46.689Z,0
2017-01-03T03:36:47.446Z,0
2017-01-03T03:37:47.749Z,0
2017-01-03T03:38:46.536Z,0
2017-01-03T03:39:47.530Z,0
2017-01-03T03:40:46.788Z,0
2017-01-03T03:41:48.240Z,0
2017-01-03T03:42:48.576Z,0
2017-01-03T03:43:48.955Z,0
2017-01-03T03:44:47.018Z,0
2017-01-03T03:45:46.601Z,0
2017-01-03T03:46:47.479Z,0
2017-01-03T03:47:48.054Z,0
2017-01-03T03:48:46.772Z,0
2017-01-03T03:49:47.618Z,0
2017-01-03T03:50:47.115Z,0
2017-01-03T03:51:47.081Z,0
2017-01-03T03:52:47.678Z,0
2017-01-03T03:53:47.598Z,0
2017-01-03T03:54:47.389Z,0
2017-01-03T03:55:47.463Z,0
2017-01-03T03:56:47.062Z,0
2017-01-03T03:57:47.223Z,0
2017-01-03T03:58:46.861Z,0
2017-01-03T03:59:47.051Z,0
2017-01-03T04:00:48.590Z,0
2017-01-03T04:01:47.815Z,0
2017-01-03T04:02:49.017Z,0
2017-01-03T04:03:47.599Z,0
2017-01-03T04:04:47.513Z,0
2017-01-03T04:05:47.690Z,0
2017-01-03T04:06:48.261Z,0
2017-01-03T04:07:47.284Z,0
2017-01-03T04:08:47.286Z,0
2017-01-03T04:09:47.122Z,0
2017-01-03T04:10:47.969Z,0
2017-01-03T04:11:47.248Z,0
2017-01-03T04:12:48.633Z,0
2017-01-03T04:13:47.677Z,0
2017-01-03T04:14:48.242Z,0
2017-01-03T04:15:47.887Z,0
2017-01-03T04:16:47.594Z,0
2017-01-03T04:17:48.368Z,0
2017-01-03T04:18:47.354Z,0
2017-01-03T04:19:47.349Z,0
2017-01-03T04:20:47.646Z,0
2017-01-03T04:21:47.310Z,0
2017-01-03T04:22:48.282Z,0
2017-01-03T04:23:47.450Z,0
2017-01-03T04:24:47.539Z,0
2017-01-03T04:25:47.332Z,0
2017-01-03T04:26:48.765Z,0
2017-01-03T04:27:47.504Z,0
2017-01-03T04:28:47.861Z,0
2017-01-03T04:29:48.057Z,0
2017-01-03T04:30:47.872Z,0
2017-01-03T04:31:47.052Z,0
2017-01-03T04:32:48.475Z,0
2017-01-03T04:33:47.558Z,0
2017-01-03T04:34:47.044Z,0
2017-01-03T04:35:48.423Z,0
2017-01-03T04:36:47.871Z,0
2017-01-03T04:37:48.423Z,0
2017-01-03T04:38:47.875Z,0
2017-01-03T04:39:47.982Z,0
2017-01-03T04:40:47.943Z,0
2017-01-03T04:41:48.410Z,0
2017-01-03T04:42:47.801Z,0
2017-01-03T04:43:47.506Z,0
2017-01-03T04:44:48.712Z,0
2017-01-03T04:45:47.852Z,0
2017-01-03T04:46:48.589Z,0
2017-01-03T04:47:47.932Z,0
2017-01-03T04:48:47.024Z,0
2017-01-03T04:49:48.443Z,0
2017-01-03T04:50:47.589Z,0
2017-01-03T04:51:47.406Z,0
2017-01-03T04:52:48.460Z,0
2017-01-03T04:53:47.877Z,0
2017-01-03T04:54:47.935Z,0
2017-01-03T04:55:47.231Z,0
2017-01-03T04:56:48.452Z,0
2017-01-03T04:57:49.136Z,0
2017-01-03T04:58:47.710Z,0
2017-01-03T04:59:47.567Z,0
2017-01-03T05:00:48.184Z,0
2017-01-03T05:01:49.303Z,0
2017-01-03T05:02:49.562Z,0
2017-01-03T05:03:48.693Z,0
2017-01-03T05:04:49.231Z,0
2017-01-03T05:05:47.783Z,0
2017-01-03T05:06:48.136Z,0
2017-01-03T05:07:48.653Z,0
2017-01-03T05:08:48.011Z,0
2017-01-03T05:09:49.246Z,0
2017-01-03T05:10:48.313Z,0
2017-01-03T05:11:48.366Z,0
2017-01-03T05:12:48.825Z,0
2017-01-03T05:13:48.467Z,0
2017-01-03T05:14:48.920Z,0
2017-01-03T05:15:49.164Z,0
2017-01-03T05:16:48.920Z,0
2017-01-03T05:17:48.651Z,0
2017-01-03T05:18:50.941Z,0
2017-01-03T05:19:49.480Z,0
2017-01-03T05:20:49.765Z,0
2017-01-03T05:21:48.663Z,0
2017-01-03T05:22:49.534Z,0
2017-01-03T05:23:48.350Z,0
2017-01-03T05:24:49.435Z,0
2017-01-03T05:25:48.255Z,0
2017-01-03T05:26:48.863Z,0
2017-01-03T05:27:48.784Z,0
2017-01-03T05:28:49.230Z,0
2017-01-03T05:29:49.736Z,0
2017-01-03T05:30:49.430Z,0
2017-01-03T05:31:47.752Z,0
2017-01-03T05:32:48.411Z,0
2017-01-03T05:33:48.397Z,0
2017-01-03T05:34:49.304Z,0
2017-01-03T05:35:48.405Z,0
2017-01-03T05:36:49.069Z,0
2017-01-03T05:37:48.744Z,0
2017-01-03T05:38:49.899Z,0
2017-01-03T05:39:48.775Z,0
2017-01-03T05:40:49.915Z,0
2017-01-03T05:41:49.080Z,0
2017-01-03T05:42:49.399Z,0
2017-01-03T05:43:48.525Z,0
2017-01-03T05:44:50.264Z,0
2017-01-03T05:45:51.082Z,0
2017-01-03T05:46:50.113Z,0
2017-01-03T05:47:49.833Z,0
2017-01-03T05:48:50.504Z,0
2017-01-03T05:49:49.183Z,0
2017-01-03T05:50:49.955Z,0
2017-01-03T05:51:49.612Z,0
2017-01-03T05:52:49.114Z,0
2017-01-03T05:53:49.998Z,0
2017-01-03T05:54:50.554Z,0
2017-01-03T05:55:48.961Z,0
2017-01-03T05:56:49.056Z,0
2017-01-03T05:57:50.040Z,0
2017-01-03T05:58:48.872Z,0
2017-01-03T05:59:49.039Z,0
2017-01-03T06:00:49.918Z,0
2017-01-03T06:01:49.574Z,0
2017-01-03T06:02:48.695Z,0
2017-01-03T06:03:49.129Z,0
2017-01-03T06:04:48.817Z,0
2017-01-03T06:05:49.829Z,0
2017-01-03T06:06:50.093Z,0
2017-01-03T06:07:49.608Z,0
2017-01-03T06:08:49.820Z,0
2017-01-03T06:09:49.039Z,0
2017-01-03T06:10:48.924Z,0
2017-01-03T06:11:49.151Z,0
2017-01-03T06:12:49.043Z,0
2017-01-03T06:13:49.079Z,0
2017-01-03T06:16:16.975Z,0
2017-01-03T06:17:04.818Z,0
2017-01-03T06:18:09.108Z,0
2017-01-03T06:18:48.724Z,0
2017-01-03T06:19:47.916Z,0
2017-01-03T06:20:49.508Z,0
2017-01-03T06:21:49.685Z,0
2017-01-03T06:22:49.286Z,0
2017-01-03T06:23:49.653Z,0
2017-01-03T06:24:50.111Z,0
2017-01-03T06:25:49.346Z,0
2017-01-03T06:26:49.369Z,0
2017-01-03T06:27:49.029Z,0
2017-01-03T06:28:50.825Z,0
2017-01-03T06:29:49.127Z,0
2017-01-03T06:30:49.779Z,0
2017-01-03T06:31:50.798Z,0
2017-01-03T06:32:48.610Z,0
2017-01-03T06:33:49.487Z,0
2017-01-03T06:34:50.165Z,0
2017-01-03T06:35:50.061Z,0
2017-01-03T06:36:51.543Z,0
2017-01-03T06:37:49.907Z,0
2017-01-03T06:38:49.407Z,0
2017-01-03T06:39:49.321Z,0
2017-01-03T06:40:48.689Z,0
2017-01-03T06:41:50.768Z,0
2017-01-03T06:42:58.440Z,0
2017-01-03T06:43:49.250Z,0
2017-01-03T06:44:50.040Z,0
2017-01-03T06:45:50.014Z,0
2017-01-03T06:46:49.839Z,0
2017-01-03T06:47:50.925Z,0
2017-01-03T06:48:49.809Z,0
2017-01-03T06:49:49.972Z,0
2017-01-03T06:50:50.639Z,0
2017-01-03T06:51:50.105Z,0
2017-01-03T06:52:49.830Z,0
2017-01-03T06:53:49.928Z,0
2017-01-03T06:54:50.116Z,0
2017-01-03T06:55:50.215Z,0
2017-01-03T06:56:50.168Z,0
2017-01-03T06:57:50.054Z,0
2017-01-03T06:58:50.029Z,0
2017-01-03T06:59:50.430Z,0
2017-01-03T07:00:50.043Z,0
2017-01-03T07:01:50.487Z,0
2017-01-03T07:02:50.159Z,0
2017-01-03T07:03:51.226Z,0
2017-01-03T07:04:50.131Z,0
2017-01-03T07:05:50.829Z,0
2017-01-03T07:06:50.254Z,0
2017-01-03T07:07:50.647Z,0
2017-01-03T07:08:50.676Z,0
2017-01-03T07:09:49.326Z,0
2017-01-03T07:10:50.112Z,0
2017-01-03T07:11:51.713Z,0
2017-01-03T07:12:51.305Z,0
2017-01-03T07:13:51.778Z,0
2017-01-03T07:14:49.895Z,0
2017-01-03T07:15:50.072Z,0
2017-01-03T07:16:50.113Z,0
2017-01-03T07:17:53.254Z,0
2017-01-03T07:18:50.669Z,0
2017-01-03T07:19:49.805Z,0
2017-01-03T07:20:50.817Z,0
2017-01-03T07:21:51.618Z,0
2017-01-03T07:22:50.843Z,5
2017-01-03T07:23:49.614Z,5
2017-01-03T07:24:52.225Z,0
2017-01-03T07:25:50.591Z,5
2017-01-03T07:26:54.569Z,5
2017-01-03T07:27:52.746Z,5
2017-01-03T07:28:51.789Z,5
2017-01-03T07:29:51.136Z,5
2017-01-03T07:30:50.449Z,5
2017-01-03T07:31:50.257Z,5
2017-01-03T07:32:51.416Z,5
2017-01-03T07:33:51.051Z,5
2017-01-03T07:34:50.225Z,5
2017-01-03T07:35:51.028Z,10
2017-01-03T07:36:50.089Z,10
2017-01-03T07:37:50.392Z,10
2017-01-03T07:38:51.182Z,10
2017-01-03T07:39:50.028Z,10
2017-01-03T07:40:50.151Z,15
2017-01-03T07:42:05.591Z,15
2017-01-03T07:42:50.595Z,15
2017-01-03T07:43:51.635Z,15
2017-01-03T07:44:52.922Z,20
2017-01-03T07:45:49.830Z,25
2017-01-03T07:46:51.310Z,25
2017-01-03T07:47:51.284Z,30
2017-01-03T07:48:51.513Z,30
2017-01-03T07:49:50.514Z,30
2017-01-03T07:50:50.064Z,30
2017-01-03T07:51:49.853Z,30
2017-01-03T07:52:50.598Z,30
2017-01-03T07:53:49.672Z,30
2017-01-03T07:54:50.066Z,30
2017-01-03T07:55:50.732Z,35
2017-01-03T07:56:50.082Z,40
2017-01-03T07:57:50.084Z,35
2017-01-03T07:58:49.501Z,30
2017-01-03T07:59:50.402Z,30
2017-01-03T08:00:50.489Z,35
2017-01-03T08:01:50.634Z,35
2017-01-03T08:02:49.795Z,35
2017-01-03T08:03:49.960Z,35
2017-01-03T08:04:49.935Z,35
2017-01-03T08:05:50.646Z,35
2017-01-03T08:06:50.271Z,35
2017-01-03T08:07:51.364Z,40
2017-01-03T08:08:49.867Z,40
2017-01-03T08:09:51.202Z,40
2017-01-03T08:10:49.822Z,40
2017-01-03T08:11:50.930Z,40
2017-01-03T08:12:50.292Z,45
2017-01-03T08:13:50.818Z,50
2017-01-03T08:14:51.214Z,50
2017-01-03T08:15:50.319Z,50
2017-01-03T08:16:51.043Z,50
2017-01-03T08:17:50.623Z,55
2017-01-03T08:18:50.708Z,60
2017-01-03T08:19:50.191Z,60
2017-01-03T08:20:50.171Z,60
2017-01-03T08:21:51.502Z,65
2017-01-03T08:22:50.616Z,70
2017-01-03T08:23:50.549Z,75
2017-01-03T08:24:50.123Z,70
2017-01-03T08:25:51.580Z,80
2017-01-03T08:26:50.571Z,75
2017-01-03T08:27:51.106Z,80
2017-01-03T08:28:50.518Z,80
2017-01-03T08:29:51.397Z,75
2017-01-03T08:30:51.291Z,70
2017-01-03T08:31:50.658Z,70
2017-01-03T08:32:51.497Z,60
2017-01-03T08:33:51.088Z,65
2017-01-03T08:34:50.621Z,70
2017-01-03T08:35:51.302Z,75
2017-01-03T08:36:50.873Z,85
2017-01-03T08:37:50.149Z,95
2017-01-03T08:38:51.223Z,100
2017-01-03T08:39:50.314Z,95
2017-01-03T08:40:51.772Z,95
2017-01-03T08:41:50.822Z,105
2017-01-03T08:42:50.978Z,105
2017-01-03T08:43:50.493Z,105
2017-01-03T08:44:51.266Z,100
2017-01-03T08:45:51.290Z,90
2017-01-03T08:46:52.197Z,95
2017-01-03T08:47:51.408Z,100
2017-01-03T08:48:51.424Z,110
2017-01-03T08:49:51.494Z,100
2017-01-03T08:50:50.538Z,95
2017-01-03T08:51:51.415Z,75
2017-01-03T08:52:50.942Z,80
2017-01-03T08:53:52.269Z,85
2017-01-03T08:54:51.888Z,95
2017-01-03T08:55:50.681Z,100
2017-01-03T08:56:50.805Z,105
2017-01-03T08:57:50.792Z,100
2017-01-03T08:58:51.038Z,95
2017-01-03T08:59:50.817Z,95
2017-01-03T09:00:52.157Z,115
2017-01-03T09:01:50.854Z,140
2017-01-03T09:02:51.258Z,135
2017-01-03T09:03:51.587Z,105
2017-01-03T09:04:50.334Z,125
2017-01-03T09:05:51.619Z,125
2017-01-03T09:06:52.292Z,120
2017-01-03T09:07:51.744Z,110
2017-01-03T09:08:51.564Z,100
2017-01-03T09:09:50.757Z,100
2017-01-03T09:10:51.413Z,105
2017-01-03T09:11:51.319Z,105
2017-01-03T09:12:50.800Z,120
2017-01-03T09:13:50.638Z,140
2017-01-03T09:14:51.841Z,115
2017-01-03T09:15:51.356Z,110
2017-01-03T09:16:50.794Z,115
2017-01-03T09:17:50.572Z,110
2017-01-03T09:18:51.282Z,105
2017-01-03T09:19:50.975Z,105
2017-01-03T09:20:51.554Z,100
2017-01-03T09:21:50.777Z,100
2017-01-03T09:22:51.466Z,110
2017-01-03T09:23:51.473Z,115
2017-01-03T09:24:51.857Z,115
2017-01-03T09:25:51.520Z,115
2017-01-03T09:26:50.949Z,105
2017-01-03T09:27:50.865Z,120
2017-01-03T09:28:50.970Z,115
2017-01-03T09:29:50.971Z,115
2017-01-03T09:30:51.689Z,115
2017-01-03T09:31:51.142Z,115
2017-01-03T09:32:51.658Z,135
2017-01-03T09:33:52.482Z,125
2017-01-03T09:34:50.844Z,150
2017-01-03T09:35:51.743Z,135
2017-01-03T09:36:51.808Z,115
2017-01-03T09:37:52.088Z,100
2017-01-03T09:38:51.380Z,110
2017-01-03T09:39:50.972Z,160
2017-01-03T09:40:51.582Z,155
2017-01-03T09:41:52.475Z,160
2017-01-03T09:42:52.113Z,165
2017-01-03T09:43:50.916Z,145
2017-01-03T09:44:51.214Z,130
2017-01-03T09:45:51.478Z,155
2017-01-03T09:46:50.937Z,140
2017-01-03T09:47:51.293Z,145
2017-01-03T09:48:52.331Z,170
2017-01-03T09:49:52.881Z,210
2017-01-03T09:50:51.875Z,240
2017-01-03T09:51:51.569Z,225
2017-01-03T09:52:51.239Z,190
2017-01-03T09:53:52.946Z,180
2017-01-03T09:54:51.829Z,190
2017-01-03T09:55:52.453Z,165
2017-01-03T09:56:52.234Z,145
2017-01-03T09:57:52.490Z,155
2017-01-03T09:58:51.944Z,165
2017-01-03T09:59:52.537Z,170
2017-01-03T10:00:51.693Z,170
2017-01-03T10:01:53.501Z,225
2017-01-03T10:02:51.114Z,205
2017-01-03T10:03:51.587Z,195
2017-01-03T10:04:52.113Z,255
2017-01-03T10:05:51.464Z,220
2017-01-03T10:06:52.100Z,240
2017-01-03T10:07:52.546Z,240
2017-01-03T10:08:52.495Z,195
2017-01-03T10:09:53.032Z,180
2017-01-03T10:10:52.543Z,185
2017-01-03T10:11:51.894Z,180
2017-01-03T10:12:53.282Z,205
2017-01-03T10:13:51.649Z,205
2017-01-03T10:14:52.452Z,195
2017-01-03T10:15:51.853Z,210
2017-01-03T10:16:53.110Z,220
2017-01-03T10:17:52.158Z,240
2017-01-03T10:18:52.400Z,245
2017-01-03T10:19:52.581Z,235
2017-01-03T10:20:53.224Z,275
2017-01-03T10:21:52.300Z,300
2017-01-03T10:22:52.096Z,315
2017-01-03T10:23:52.467Z,305
2017-01-03T10:24:52.423Z,315
2017-01-03T10:25:52.816Z,335
2017-01-03T10:26:52.734Z,355
2017-01-03T10:27:51.949Z,330
2017-01-03T10:28:51.330Z,355
2017-01-03T10:29:52.925Z,340
2017-01-03T10:30:52.868Z,320
2017-01-03T10:31:51.656Z,285
2017-01-03T10:32:52.721Z,225
2017-01-03T10:33:52.778Z,230
2017-01-03T10:34:51.333Z,240
2017-01-03T10:35:51.746Z,240
2017-01-03T10:36:52.968Z,225
2017-01-03T10:37:52.785Z,225
2017-01-03T10:38:52.432Z,220
2017-01-03T10:39:52.895Z,220
2017-01-03T10:40:52.855Z,220
2017-01-03T10:41:53.289Z,210
2017-01-03T10:42:53.100Z,210
2017-01-03T10:43:52.268Z,235
2017-01-03T10:44:52.059Z,230
2017-01-03T10:45:52.052Z,230
2017-01-03T10:46:53.056Z,255
2017-01-03T10:47:51.801Z,240
2017-01-03T10:48:52.596Z,230
2017-01-03T10:49:52.299Z,240
2017-01-03T10:50:53.118Z,245
2017-01-03T10:51:52.583Z,210
2017-01-03T10:52:52.293Z,200
2017-01-03T10:53:53.040Z,180
2017-01-03T10:54:52.196Z,200
2017-01-03T10:55:52.405Z,205
2017-01-03T10:56:52.013Z,200
2017-01-03T10:57:52.660Z,215
2017-01-03T10:58:53.120Z,245
2017-01-03T10:59:53.430Z,245
2017-01-03T11:00:53.100Z,220
2017-01-03T11:01:53.654Z,245
2017-01-03T11:02:53.049Z,275
2017-01-03T11:03:53.437Z,195
2017-01-03T11:04:52.225Z,180
2017-01-03T11:05:53.174Z,165
2017-01-03T11:06:52.542Z,145
2017-01-03T11:07:53.159Z,150
2017-01-03T11:08:52.524Z,150
2017-01-03T11:09:53.107Z,165
2017-01-03T11:10:52.770Z,130
2017-01-03T11:11:53.216Z,165
2017-01-03T11:12:53.004Z,170
2017-01-03T11:13:52.350Z,165
2017-01-03T11:14:52.660Z,160
2017-01-03T11:15:51.865Z,135
2017-01-03T11:16:52.972Z,130
2017-01-03T11:17:52.974Z,145
2017-01-03T11:18:52.908Z,125
2017-01-03T11:19:53.065Z,120
2017-01-03T11:20:53.055Z,140
2017-01-03T11:21:53.961Z,140
2017-01-03T11:22:52.246Z,110
2017-01-03T11:23:53.628Z,105
2017-01-03T11:24:53.465Z,120
2017-01-03T11:25:53.598Z,110
2017-01-03T11:26:52.446Z,120
2017-01-03T11:27:53.772Z,115
2017-01-03T11:28:52.551Z,105
2017-01-03T11:29:52.563Z,110
2017-01-03T11:30:53.568Z,120
2017-01-03T11:31:53.498Z,125
2017-01-03T11:32:54.622Z,140
2017-01-03T11:33:52.725Z,145
2017-01-03T11:34:52.489Z,190
2017-01-03T11:35:53.346Z,185
2017-01-03T11:36:53.214Z,180
2017-01-03T11:37:52.902Z,205
2017-01-03T11:38:52.642Z,195
2017-01-03T11:39:53.079Z,220
2017-01-03T11:40:52.322Z,235
2017-01-03T11:41:53.709Z,205
2017-01-03T11:42:53.270Z,200
2017-01-03T11:43:53.750Z,195
2017-01-03T11:44:53.759Z,240
2017-01-03T11:45:52.800Z,230
2017-01-03T11:46:53.758Z,280
2017-01-03T11:47:52.916Z,250
2017-01-03T11:48:53.879Z,250
2017-01-03T11:49:53.575Z,260
2017-01-03T11:50:53.090Z,230
2017-01-03T11:51:54.606Z,175
2017-01-03T11:52:53.823Z,175
2017-01-03T11:53:53.294Z,165
2017-01-03T11:54:53.987Z,185
2017-01-03T11:55:52.947Z,215
2017-01-03T11:56:53.404Z,205
2017-01-03T11:57:52.714Z,175
2017-01-03T11:58:53.432Z,185
2017-01-03T11:59:53.085Z,190
2017-01-03T12:00:54.863Z,200
2017-01-03T12:01:54.158Z,195
2017-01-03T12:02:53.095Z,215
2017-01-03T12:03:53.978Z,230
2017-01-03T12:04:53.652Z,240
2017-01-03T12:05:53.898Z,220
2017-01-03T12:06:53.786Z,205
2017-01-03T12:07:54.421Z,225
2017-01-03T12:08:54.856Z,255
2017-01-03T12:09:55.017Z,190
2017-01-03T12:10:54.009Z,180
2017-01-03T12:11:54.566Z,180
2017-01-03T12:12:53.372Z,180
2017-01-03T12:13:53.730Z,225
2017-01-03T12:14:53.705Z,240
2017-01-03T12:15:53.833Z,235
2017-01-03T12:16:53.798Z,245
2017-01-03T12:17:54.436Z,290
2017-01-03T12:18:53.467Z,325
2017-01-03T12:19:53.460Z,290
2017-01-03T12:20:53.949Z,290
2017-01-03T12:21:54.481Z,260
2017-01-03T12:22:53.800Z,175
2017-01-03T12:23:54.121Z,150
2017-01-03T12:24:53.777Z,150
2017-01-03T12:25:55.034Z,165
2017-01-03T12:26:54.615Z,170
2017-01-03T12:27:53.829Z,215
2017-01-03T12:28:53.374Z,245
2017-01-03T12:29:54.292Z,285
2017-01-03T12:30:53.782Z,260
2017-01-03T12:31:54.061Z,230
2017-01-03T12:32:54.479Z,220
2017-01-03T12:33:54.812Z,185
2017-01-03T12:34:54.623Z,245
2017-01-03T12:35:54.552Z,255
2017-01-03T12:36:54.814Z,230
2017-01-03T12:37:53.848Z,240
2017-01-03T12:38:54.229Z,240
2017-01-03T12:39:53.248Z,295
2017-01-03T12:40:54.083Z,250
2017-01-03T12:41:54.534Z,235
2017-01-03T12:42:53.521Z,255
2017-01-03T12:43:53.640Z,255
2017-01-03T12:44:54.707Z,235
2017-01-03T12:45:54.606Z,250
2017-01-03T12:46:53.721Z,250
2017-01-03T12:47:54.928Z,240
2017-01-03T12:48:53.788Z,205
2017-01-03T12:49:54.444Z,240
2017-01-03T12:50:54.211Z,250
2017-01-03T12:51:54.560Z,295
2017-01-03T12:52:54.317Z,315
2017-01-03T12:53:53.828Z,255
2017-01-03T12:54:53.462Z,225
2017-01-03T12:55:54.046Z,235
2017-01-03T12:56:54.306Z,235
2017-01-03T12:57:54.118Z,210
2017-01-03T12:58:54.397Z,230
2017-01-03T12:59:53.866Z,315
2017-01-03T13:00:54.830Z,255
2017-01-03T13:01:53.785Z,225
2017-01-03T13:02:55.519Z,225
2017-01-03T13:03:53.554Z,185
2017-01-03T13:04:53.726Z,180
2017-01-03T13:05:54.420Z,145
2017-01-03T13:06:54.960Z,115
2017-01-03T13:07:54.903Z,155
2017-01-03T13:08:54.346Z,190
2017-01-03T13:09:53.970Z,145
2017-01-03T13:10:53.902Z,125
2017-01-03T13:11:54.981Z,110
2017-01-03T13:12:54.743Z,105
2017-01-03T13:13:55.059Z,90
2017-01-03T13:14:54.970Z,75
2017-01-03T13:15:55.004Z,80
2017-01-03T13:16:56.036Z,85
2017-01-03T13:17:54.247Z,80
2017-01-03T13:18:54.248Z,75
2017-01-03T13:19:54.525Z,85
2017-01-03T13:20:54.749Z,80
2017-01-03T13:21:55.117Z,75
2017-01-03T13:22:54.661Z,75
2017-01-03T13:23:55.544Z,85
2017-01-03T13:24:55.025Z,95
2017-01-03T13:25:55.274Z,90
2017-01-03T13:26:54.486Z,90
2017-01-03T13:27:55.897Z,90
2017-01-03T13:28:54.738Z,95
2017-01-03T13:29:54.617Z,120
2017-01-03T13:30:55.022Z,150
2017-01-03T13:31:54.040Z,165
2017-01-03T13:32:54.870Z,160
2017-01-03T13:33:54.423Z,160
2017-01-03T13:34:55.295Z,165
2017-01-03T13:35:54.821Z,165
2017-01-03T13:36:55.195Z,175
2017-01-03T13:37:55.041Z,145
2017-01-03T13:38:54.599Z,140
2017-01-03T13:39:54.812Z,165
2017-01-03T13:40:55.506Z,200
2017-01-03T13:41:55.487Z,210
2017-01-03T13:42:54.374Z,210
2017-01-03T13:43:54.902Z,180
2017-01-03T13:44:55.596Z,220
2017-01-03T13:45:55.003Z,225
2017-01-03T13:46:55.552Z,225
2017-01-03T13:47:55.592Z,180
2017-01-03T13:48:55.003Z,160
2017-01-03T13:49:56.102Z,130
2017-01-03T13:50:55.199Z,130
2017-01-03T13:51:55.623Z,140
2017-01-03T13:52:55.451Z,110
2017-01-03T13:53:54.693Z,90
2017-01-03T13:54:55.349Z,85
2017-01-03T13:55:54.569Z,70
2017-01-03T13:56:54.600Z,95
2017-01-03T13:57:54.826Z,110
2017-01-03T13:58:55.804Z,95
2017-01-03T13:59:56.359Z,120
2017-01-03T14:00:54.972Z,110
2017-01-03T14:01:54.720Z,115
2017-01-03T14:02:55.172Z,140
2017-01-03T14:03:54.582Z,120
2017-01-03T14:04:55.544Z,125
2017-01-03T14:05:55.104Z,130
2017-01-03T14:06:55.135Z,100
2017-01-03T14:07:54.893Z,105
2017-01-03T14:08:56.451Z,90
2017-01-03T14:09:54.563Z,90
2017-01-03T14:10:56.335Z,85
2017-01-03T14:11:54.727Z,60
2017-01-03T14:12:55.672Z,70
2017-01-03T14:13:54.902Z,75
2017-01-03T14:14:55.052Z,90
2017-01-03T14:15:56.426Z,95
2017-01-03T14:16:54.528Z,85
2017-01-03T14:17:55.102Z,60
2017-01-03T14:18:55.515Z,75
2017-01-03T14:19:55.195Z,70
2017-01-03T14:20:55.627Z,70
2017-01-03T14:21:56.160Z,75
2017-01-03T14:22:54.767Z,90